Time;durP1;ratioP1;P1;durP2;ratioP2;P2;SDS_P1;SDS_P2;PMS_P1;PMS_P2;Temp;Humidity;BMP_temperature;BMP_pressure;BME280_temperature;BME280_humidity;BME280_pressure;Samples;Min_cycle;Max_cycle;Signal;HPM_P1;HPM_P2
2023/07/11 00:01:42;;;;;;;11.10;8.90;;;;;;;19.38;68.88;96717.92;108858;1270;25281;-77
2023/07/11 00:04:13;;;;;;;12.60;9.20;;;;;;;19.35;69.23;96717.36;108814;1273;23186;-77
2023/07/11 00:06:46;;;;;;;11.90;9.60;;;;;;;19.32;69.38;96710.66;108781;1272;27768;-77
2023/07/11 00:09:19;;;;;;;12.50;8.80;;;;;;;19.31;69.56;96711.17;108833;1272;26573;-78
2023/07/11 00:11:50;;;;;;;12.00;9.20;;;;;;;19.30;69.69;96712.08;108830;1266;23121;-78
2023/07/11 00:14:21;;;;;;;12.70;9.30;;;;;;;19.30;69.80;96712.21;108887;1269;24020;-78
2023/07/11 00:16:54;;;;;;;11.70;9.00;;;;;;;19.28;70.11;96709.45;108782;1272;22522;-78
2023/07/11 00:19:26;;;;;;;11.10;8.70;;;;;;;19.30;70.27;96707.75;108834;1272;22516;-78
2023/07/11 00:21:57;;;;;;;12.30;9.10;;;;;;;19.32;70.43;96717.05;108804;1273;25564;-77
2023/07/11 00:24:28;;;;;;;11.90;8.90;;;;;;;19.33;70.35;96720.98;108792;1273;22511;-76
2023/07/11 00:26:59;;;;;;;11.50;9.20;;;;;;;19.36;70.47;96710.92;108828;1273;22522;-78
2023/07/11 00:29:30;;;;;;;10.20;8.60;;;;;;;19.35;70.55;96703.00;108814;1273;24215;-78
2023/07/11 00:32:02;;;;;;;10.60;8.40;;;;;;;19.33;70.65;96699.04;108857;1266;25313;-78
2023/07/11 00:34:33;;;;;;;11.70;8.90;;;;;;;19.30;70.71;96698.53;108725;1273;26396;-77
2023/07/11 00:37:05;;;;;;;11.50;9.40;;;;;;;19.27;71.00;96693.14;108774;1256;22563;-78
2023/07/11 00:39:38;;;;;;;12.50;8.70;;;;;;;19.26;71.25;96689.58;108831;1273;22527;-78
2023/07/11 00:42:11;;;;;;;10.70;9.00;;;;;;;19.24;71.35;96687.52;108759;1269;22526;-77
2023/07/11 00:44:54;;;;;;;11.30;8.80;;;;;;;19.22;71.53;96685.67;108654;1272;25516;-76
2023/07/11 00:47:27;;;;;;;11.90;8.80;;;;;;;19.21;71.70;96679.19;108739;1272;22514;-77
2023/07/11 00:50:04;;;;;;;12.00;9.30;;;;;;;19.19;71.94;96675.43;108715;1269;22518;-77
2023/07/11 00:52:37;;;;;;;12.60;8.20;;;;;;;19.19;72.06;96678.66;108723;1272;23376;-77
2023/07/11 00:55:12;;;;;;;11.80;9.20;;;;;;;19.20;72.13;96675.98;108669;1273;25067;-77
2023/07/11 00:57:45;;;;;;;10.20;8.00;;;;;;;19.21;72.23;96677.73;108739;1273;22554;-77
2023/07/11 01:00:18;;;;;;;10.30;8.20;;;;;;;19.24;72.22;96679.13;108723;1269;22537;-77
2023/07/11 01:02:48;;;;;;;10.70;8.30;;;;;;;19.28;72.29;96678.02;108701;1269;22634;-77
2023/07/11 01:05:20;;;;;;;9.90;8.20;;;;;;;19.30;72.21;96685.33;108734;1272;22570;-77
2023/07/11 01:07:51;;;;;;;10.40;8.20;;;;;;;19.33;72.27;96698.48;108671;1273;22629;-77
2023/07/11 01:10:22;;;;;;;9.90;8.20;;;;;;;19.39;72.22;96702.58;108689;1273;22542;-77
2023/07/11 01:13:00;;;;;;;11.80;8.30;;;;;;;19.43;72.17;96699.50;108779;1272;22536;-77
2023/07/11 01:15:31;;;;;;;10.70;8.60;;;;;;;19.45;72.20;96700.44;108705;1273;22821;-77
2023/07/11 01:18:02;;;;;;;10.30;8.20;;;;;;;19.46;72.11;96697.41;108742;1273;25337;-77
2023/07/11 01:20:33;;;;;;;9.20;7.40;;;;;;;19.47;72.10;96693.60;108727;1272;24182;-77
2023/07/11 01:23:05;;;;;;;10.10;8.10;;;;;;;19.48;71.99;96687.40;108618;1275;22539;-77
2023/07/11 01:25:38;;;;;;;10.10;8.10;;;;;;;19.49;71.99;96679.76;108606;1269;22525;-77
2023/07/11 01:28:12;;;;;;;10.20;7.80;;;;;;;19.51;71.88;96670.81;108643;1275;22630;-77
2023/07/11 01:30:44;;;;;;;8.90;7.50;;;;;;;19.51;71.94;96671.66;108644;1275;23982;-77
2023/07/11 01:33:14;;;;;;;9.80;8.10;;;;;;;19.52;71.88;96676.53;108611;1275;22547;-77
2023/07/11 01:35:45;;;;;;;12.50;8.90;;;;;;;19.53;72.08;96679.55;108601;1267;22531;-77
2023/07/11 01:38:16;;;;;;;9.40;8.00;;;;;;;19.52;72.10;96686.92;108644;1272;22527;-77
2023/07/11 01:40:48;;;;;;;10.90;7.80;;;;;;;19.54;72.13;96685.84;108605;1273;22671;-77
2023/07/11 01:43:20;;;;;;;11.50;8.30;;;;;;;19.54;72.13;96685.85;108596;1275;22535;-77
2023/07/11 01:45:51;;;;;;;10.50;8.40;;;;;;;19.53;72.13;96686.79;108620;1275;22582;-77
2023/07/11 01:48:22;;;;;;;10.60;8.30;;;;;;;19.53;72.17;96689.17;108632;1275;22616;-77
2023/07/11 01:50:53;;;;;;;9.90;7.80;;;;;;;19.51;72.30;96687.04;108619;1272;24212;-77
2023/07/11 01:53:24;;;;;;;11.70;8.50;;;;;;;19.52;72.35;96683.52;108636;1274;22525;-77
2023/07/11 01:56:01;;;;;;;12.40;8.60;;;;;;;19.55;72.48;96686.09;108616;1274;25315;-77
2023/07/11 01:58:34;;;;;;;10.40;8.30;;;;;;;19.57;72.37;96684.59;108664;1274;24214;-78
2023/07/11 02:01:05;;;;;;;11.90;7.90;;;;;;;19.58;72.52;96681.85;108570;1269;22523;-77
2023/07/11 02:03:36;;;;;;;10.70;7.90;;;;;;;19.58;72.34;96685.62;108604;1272;22534;-77
2023/07/11 02:06:07;;;;;;;11.00;8.00;;;;;;;19.57;72.45;96688.19;108612;1272;25450;-77
2023/07/11 02:08:38;;;;;;;9.50;8.30;;;;;;;19.55;72.58;96693.46;108591;1275;22512;-77
2023/07/11 02:11:09;;;;;;;10.00;7.80;;;;;;;19.55;72.63;96691.86;108647;1275;24213;-77
2023/07/11 02:13:40;;;;;;;9.50;8.40;;;;;;;19.55;72.54;96691.41;108620;1272;22837;-78
2023/07/11 02:16:11;;;;;;;11.40;8.40;;;;;;;19.56;72.71;96691.08;108591;1272;22528;-77
2023/07/11 02:18:42;;;;;;;9.40;8.10;;;;;;;19.58;72.71;96689.29;108592;1275;22535;-77
2023/07/11 02:21:14;;;;;;;10.50;7.70;;;;;;;19.59;72.70;96694.24;108709;1273;22564;-77
2023/07/11 02:23:45;;;;;;;9.90;8.40;;;;;;;19.60;72.74;96703.66;108732;1267;22529;-77
2023/07/11 02:26:16;;;;;;;10.80;8.50;;;;;;;19.58;72.68;96700.30;108732;1267;22530;-77
2023/07/11 02:28:47;;;;;;;10.80;8.20;;;;;;;19.55;72.78;96710.23;108685;1273;22531;-77
2023/07/11 02:31:18;;;;;;;10.00;7.70;;;;;;;19.53;72.81;96709.91;108710;1273;22556;-77
2023/07/11 02:33:50;;;;;;;10.40;8.30;;;;;;;19.51;72.91;96713.30;108712;1271;22528;-77
2023/07/11 02:36:21;;;;;;;10.10;7.70;;;;;;;19.46;73.03;96713.55;108653;1273;22531;-77
2023/07/11 02:38:52;;;;;;;11.00;8.60;;;;;;;19.44;73.12;96718.07;108694;1273;22573;-77
2023/07/11 02:41:24;;;;;;;10.50;8.30;;;;;;;19.42;73.16;96718.14;108685;1267;22941;-77
2023/07/11 02:43:55;;;;;;;13.50;8.60;;;;;;;19.40;73.14;96716.61;108685;1273;22518;-77
2023/07/11 02:46:26;;;;;;;13.10;8.40;;;;;;;19.38;73.42;96719.78;108705;1273;22660;-77
2023/07/11 02:48:58;;;;;;;10.90;7.80;;;;;;;19.39;73.57;96725.11;108709;1273;22531;-77
2023/07/11 02:51:29;;;;;;;10.80;8.20;;;;;;;19.41;73.50;96725.80;108785;1269;25754;-77
2023/07/11 02:54:02;;;;;;;10.60;7.90;;;;;;;19.42;73.51;96724.84;108722;1273;22526;-77
2023/07/11 02:56:34;;;;;;;9.60;8.00;;;;;;;19.44;73.42;96721.52;108810;1269;22523;-78
2023/07/11 02:59:11;;;;;;;8.80;7.40;;;;;;;19.46;73.45;96727.51;108825;1273;22636;-78
2023/07/11 03:01:42;;;;;;;10.90;8.50;;;;;;;19.47;73.44;96726.48;108759;1269;22547;-77
2023/07/11 03:04:13;;;;;;;10.50;8.20;;;;;;;19.49;73.60;96723.67;108684;1254;25477;-77
2023/07/11 03:06:45;;;;;;;10.10;7.50;;;;;;;19.49;73.68;96723.39;108776;1273;22522;-77
2023/07/11 03:09:16;;;;;;;10.00;8.30;;;;;;;19.50;73.58;96723.11;108788;1273;22525;-75
2023/07/11 03:11:48;;;;;;;9.60;8.00;;;;;;;19.52;73.68;96721.54;108821;1260;25611;-76
2023/07/11 03:14:19;;;;;;;9.10;7.30;;;;;;;19.53;73.77;96728.36;108711;1273;22510;-76
2023/07/11 03:16:53;;;;;;;10.00;7.80;;;;;;;19.54;73.72;96727.32;108642;1273;22627;-76
2023/07/11 03:19:24;;;;;;;9.60;8.20;;;;;;;19.55;73.62;96724.06;108718;1273;22513;-76
2023/07/11 03:21:56;;;;;;;11.00;7.30;;;;;;;19.54;73.66;96724.58;108701;1273;22960;-76
2023/07/11 03:24:27;;;;;;;9.90;7.40;;;;;;;19.55;73.78;96730.89;108718;1273;22525;-76
2023/07/11 03:26:58;;;;;;;8.70;7.10;;;;;;;19.55;73.66;96730.23;108658;1273;25426;-76
2023/07/11 03:29:29;;;;;;;8.50;7.20;;;;;;;19.54;73.63;96730.27;108780;1273;22534;-75
2023/07/11 03:32:00;;;;;;;9.40;7.30;;;;;;;19.54;73.64;96729.70;108793;1273;22514;-76
2023/07/11 03:34:32;;;;;;;9.80;7.20;;;;;;;19.54;73.62;96731.41;108802;1269;22518;-75
2023/07/11 03:37:03;;;;;;;10.30;7.20;;;;;;;19.54;73.66;96732.16;108791;1266;22517;-75
2023/07/11 03:39:34;;;;;;;9.80;7.20;;;;;;;19.53;73.55;96733.20;108792;1267;22521;-76
2023/07/11 03:42:06;;;;;;;9.20;6.80;;;;;;;19.52;73.35;96738.85;108820;1273;22592;-76
2023/07/11 03:44:38;;;;;;;9.10;7.10;;;;;;;19.51;73.42;96738.36;108773;1273;24714;-75
2023/07/11 03:47:10;;;;;;;11.20;6.80;;;;;;;19.51;73.39;96734.90;108730;1273;22504;-76
2023/07/11 03:49:41;;;;;;;8.50;7.10;;;;;;;19.51;73.26;96737.50;108712;1273;25412;-76
2023/07/11 03:52:13;;;;;;;9.70;6.90;;;;;;;19.49;73.25;96739.08;108725;1273;25439;-76
2023/07/11 03:54:44;;;;;;;8.20;6.80;;;;;;;19.51;73.43;96739.42;108661;1273;22556;-75
2023/07/11 03:57:16;;;;;;;10.10;6.90;;;;;;;19.53;73.38;96740.88;108714;1273;22555;-76
2023/07/11 03:59:47;;;;;;;12.10;6.80;;;;;;;19.55;73.31;96742.79;108722;1273;25507;-76
2023/07/11 04:02:18;;;;;;;9.10;7.20;;;;;;;19.55;73.16;96737.45;108709;1273;22527;-76
2023/07/11 04:04:49;;;;;;;8.10;7.00;;;;;;;19.54;73.17;96738.84;108668;1273;26573;-76
2023/07/11 04:07:21;;;;;;;9.90;7.50;;;;;;;19.53;73.24;96740.14;108755;1273;23217;-76
2023/07/11 04:09:52;;;;;;;8.70;7.40;;;;;;;19.53;73.12;96741.71;108689;1273;22522;-76
2023/07/11 04:12:23;;;;;;;9.00;7.00;;;;;;;19.53;73.10;96739.25;108752;1273;25506;-76
2023/07/11 04:14:57;;;;;;;9.50;7.10;;;;;;;19.54;73.10;96739.16;108690;1273;22631;-76
2023/07/11 04:17:28;;;;;;;12.20;7.10;;;;;;;19.54;72.93;96739.48;108729;1273;24391;-76
2023/07/11 04:20:00;;;;;;;9.20;7.00;;;;;;;19.57;73.00;96747.66;108706;1273;22536;-76
2023/07/11 04:22:31;;;;;;;9.20;7.00;;;;;;;19.61;72.92;96745.70;108690;1273;22530;-76
2023/07/11 04:25:03;;;;;;;10.50;8.20;;;;;;;19.62;72.85;96745.59;108616;1273;22530;-76
2023/07/11 04:27:35;;;;;;;8.90;7.40;;;;;;;19.60;72.93;96744.38;108664;1273;22518;-76
2023/07/11 04:30:08;;;;;;;8.40;7.20;;;;;;;19.59;72.95;96749.11;108688;1270;22539;-76
2023/07/11 04:32:40;;;;;;;10.80;7.10;;;;;;;19.60;73.06;96750.90;108901;1273;25300;-76
2023/07/11 04:35:15;;;;;;;8.70;7.30;;;;;;;19.61;72.82;96746.86;108635;1270;26761;-76
2023/07/11 04:37:46;;;;;;;8.00;7.00;;;;;;;19.57;72.76;96750.66;108705;1273;22537;-76
2023/07/11 04:40:18;;;;;;;9.10;7.00;;;;;;;19.56;72.87;96753.77;108647;1270;22566;-77
2023/07/11 04:42:49;;;;;;;8.00;7.10;;;;;;;19.59;72.85;96751.39;108691;1273;22627;-76
2023/07/11 04:45:20;;;;;;;8.00;6.70;;;;;;;19.59;72.81;96756.23;108659;1272;22638;-76
2023/07/11 04:47:51;;;;;;;9.10;6.80;;;;;;;19.60;72.83;96758.66;108668;1272;22511;-76
2023/07/11 04:50:23;;;;;;;10.20;7.60;;;;;;;19.66;73.04;96759.61;108644;1272;22525;-76
2023/07/11 04:52:54;;;;;;;9.30;7.40;;;;;;;19.75;72.99;96759.73;108669;1272;22670;-77
2023/07/11 04:55:25;;;;;;;8.30;6.80;;;;;;;19.85;72.96;96758.97;108727;1272;22586;-77
2023/07/11 04:57:56;;;;;;;7.90;6.10;;;;;;;19.90;72.57;96758.75;108737;1272;24011;-76
2023/07/11 05:00:27;;;;;;;8.40;6.50;;;;;;;19.96;72.44;96754.88;108820;1273;25101;-75
2023/07/11 05:02:58;;;;;;;8.10;6.90;;;;;;;20.04;72.12;96759.83;108792;1272;22558;-74
2023/07/11 05:05:29;;;;;;;8.70;7.10;;;;;;;20.09;71.99;96762.66;108816;1266;22512;-74
2023/07/11 05:08:00;;;;;;;8.00;6.80;;;;;;;20.12;71.92;96762.38;108814;1273;22527;-74
2023/07/11 05:10:31;;;;;;;10.10;7.40;;;;;;;20.15;71.97;96768.11;108738;1273;22517;-75
2023/07/11 05:13:02;;;;;;;9.50;7.10;;;;;;;20.17;71.70;96764.39;108709;1270;22551;-75
2023/07/11 05:15:33;;;;;;;8.80;7.20;;;;;;;20.23;71.62;96772.63;108688;1273;25328;-75
2023/07/11 05:18:04;;;;;;;10.40;6.50;;;;;;;20.36;71.72;96766.86;108690;1271;22517;-75
2023/07/11 05:20:36;;;;;;;8.90;6.60;;;;;;;20.58;71.72;96773.94;108723;1273;22511;-75
2023/07/11 05:23:07;;;;;;;10.50;7.50;;;;;;;21.06;71.70;96769.33;108640;1275;22515;-76
2023/07/11 05:25:39;;;;;;;8.80;6.40;;;;;;;21.73;71.15;96769.86;108600;1274;24341;-75
2023/07/11 05:28:10;;;;;;;8.60;6.50;;;;;;;22.51;70.40;96770.11;108603;1273;25290;-76
2023/07/11 05:30:41;;;;;;;6.80;6.10;;;;;;;23.20;69.06;96772.37;108629;1275;22540;-75
2023/07/11 05:33:13;;;;;;;7.10;6.30;;;;;;;23.76;67.49;96775.02;108721;1275;22510;-76
2023/07/11 05:35:51;;;;;;;7.30;5.80;;;;;;;24.29;66.51;96772.47;108755;1275;22559;-75
2023/07/11 05:38:22;;;;;;;6.80;6.00;;;;;;;24.82;65.15;96772.25;108672;1275;22537;-75
2023/07/11 05:40:53;;;;;;;10.50;6.60;;;;;;;25.17;63.81;96770.64;108569;1270;22514;-75
2023/07/11 05:43:24;;;;;;;6.70;5.70;;;;;;;25.46;62.48;96773.23;108632;1273;24687;-74
2023/07/11 05:45:55;;;;;;;6.90;5.30;;;;;;;25.61;61.08;96778.05;108608;1270;22682;-74
2023/07/11 05:48:26;;;;;;;9.50;6.10;;;;;;;25.73;59.99;96775.10;108624;1273;22530;-75
2023/07/11 05:51:02;;;;;;;7.50;5.60;;;;;;;25.71;59.44;96775.23;108621;1274;22542;-75
2023/07/11 05:53:35;;;;;;;6.80;5.30;;;;;;;25.87;59.30;96774.77;108761;1272;25239;-76
2023/07/11 05:56:08;;;;;;;6.60;5.60;;;;;;;25.77;58.04;96773.36;108710;1267;23181;-76
2023/07/11 05:58:41;;;;;;;7.20;5.20;;;;;;;25.69;58.03;96774.19;108669;1268;22571;-75
2023/07/11 06:01:15;;;;;;;6.50;5.30;;;;;;;25.79;57.55;96773.54;108543;1270;23087;-75
2023/07/11 06:03:49;;;;;;;6.60;5.10;;;;;;;26.01;57.01;96773.74;108742;1274;22522;-75
2023/07/11 06:06:22;;;;;;;6.10;5.20;;;;;;;26.01;56.16;96779.40;108723;1267;25254;-74
2023/07/11 06:08:54;;;;;;;6.20;5.40;;;;;;;25.96;55.75;96776.88;108752;1275;22556;-75
2023/07/11 06:11:24;;;;;;;5.80;5.30;;;;;;;26.10;55.95;96779.33;108703;1267;23197;-75
2023/07/11 06:13:56;;;;;;;6.10;4.90;;;;;;;26.28;55.18;96779.95;108705;1273;22533;-75
2023/07/11 06:16:27;;;;;;;5.50;4.90;;;;;;;26.25;54.44;96779.30;108597;1273;27469;-76
2023/07/11 06:18:58;;;;;;;5.40;4.90;;;;;;;26.40;54.38;96778.27;108581;1267;22518;-76
2023/07/11 06:21:29;;;;;;;7.60;5.00;;;;;;;26.35;53.52;96780.10;108561;1273;23334;-75
2023/07/11 06:24:00;;;;;;;5.90;5.00;;;;;;;26.32;53.26;96781.76;108606;1267;22538;-75
2023/07/11 06:26:32;;;;;;;5.90;4.70;;;;;;;26.48;53.47;96780.44;108582;1267;22518;-75
2023/07/11 06:29:03;;;;;;;5.80;5.20;;;;;;;26.63;52.90;96778.98;108681;1267;22535;-75
2023/07/11 06:31:34;;;;;;;5.10;4.60;;;;;;;26.57;52.07;96781.21;108693;1273;22582;-75
2023/07/11 06:34:05;;;;;;;5.50;4.80;;;;;;;26.43;52.12;96781.72;108722;1270;23838;-75
2023/07/11 06:36:39;;;;;;;7.60;4.80;;;;;;;26.47;52.37;96782.84;108702;1271;23629;-75
2023/07/11 06:39:10;;;;;;;6.40;4.80;;;;;;;26.59;52.22;96782.60;108768;1273;22552;-75
2023/07/11 06:41:41;;;;;;;5.40;4.90;;;;;;;26.70;52.21;96781.52;108707;1267;25309;-76
2023/07/11 06:44:15;;;;;;;6.20;5.00;;;;;;;26.83;51.81;96779.42;108738;1267;22556;-76
2023/07/11 06:46:46;;;;;;;5.40;4.90;;;;;;;26.68;51.40;96777.92;108765;1273;22515;-76
2023/07/11 06:49:17;;;;;;;6.30;5.00;;;;;;;26.49;51.30;96775.64;108744;1267;22523;-76
2023/07/11 06:51:49;;;;;;;5.40;4.70;;;;;;;26.33;51.40;96780.52;108729;1267;22979;-76
2023/07/11 06:54:20;;;;;;;7.50;5.40;;;;;;;26.29;51.64;96782.59;108799;1269;25425;-76
2023/07/11 06:56:54;;;;;;;6.30;4.70;;;;;;;26.36;51.86;96779.57;108773;1273;22525;-76
2023/07/11 06:59:26;;;;;;;5.00;4.50;;;;;;;26.44;51.77;96778.62;108760;1273;22612;-76
2023/07/11 07:01:57;;;;;;;8.10;4.80;;;;;;;26.44;51.31;96779.25;108740;1273;22518;-77
2023/07/11 07:04:28;;;;;;;6.60;5.30;;;;;;;26.38;51.33;96779.75;108755;1260;22577;-77
2023/07/11 07:06:59;;;;;;;6.20;5.00;;;;;;;26.54;51.45;96773.02;108733;1273;22637;-75
2023/07/11 07:09:31;;;;;;;5.50;4.80;;;;;;;26.62;51.12;96772.09;108736;1273;25363;-75
2023/07/11 07:12:03;;;;;;;6.10;4.50;;;;;;;26.69;50.80;96764.10;108728;1267;22528;-77
2023/07/11 07:14:34;;;;;;;7.50;4.70;;;;;;;26.58;50.42;96768.54;108687;1267;22534;-76
2023/07/11 07:17:05;;;;;;;6.00;4.30;;;;;;;26.59;50.27;96768.39;108618;1273;23851;-78
2023/07/11 07:19:37;;;;;;;4.50;4.10;;;;;;;26.80;50.45;96760.75;108634;1267;22513;-76
2023/07/11 07:22:08;;;;;;;6.40;4.70;;;;;;;26.76;49.53;96766.01;108637;1273;26576;-76
2023/07/11 07:24:40;;;;;;;4.70;4.20;;;;;;;26.55;49.47;96768.98;108638;1267;22534;-77
2023/07/11 07:27:12;;;;;;;6.80;4.40;;;;;;;26.47;49.72;96768.02;108659;1273;22526;-76
2023/07/11 07:29:43;;;;;;;7.00;4.90;;;;;;;26.56;49.71;96764.88;108714;1270;25323;-76
2023/07/11 07:32:15;;;;;;;5.40;4.30;;;;;;;26.65;49.32;96762.52;108686;1273;23729;-76
2023/07/11 07:34:47;;;;;;;5.70;5.10;;;;;;;26.76;49.13;96759.34;108565;1273;194325;-76
2023/07/11 07:37:18;;;;;;;5.30;4.60;;;;;;;26.74;49.09;96756.82;108677;1273;22524;-76
2023/07/11 07:39:49;;;;;;;4.50;4.10;;;;;;;26.81;49.24;96758.81;108720;1267;22548;-76
2023/07/11 07:42:21;;;;;;;5.90;4.50;;;;;;;27.03;48.82;96761.76;108685;1273;22526;-76
2023/07/11 07:44:55;;;;;;;5.10;4.20;;;;;;;27.00;48.27;96759.09;108705;1273;25330;-76
2023/07/11 07:47:26;;;;;;;5.50;4.10;;;;;;;26.86;47.60;96756.81;108695;1273;22546;-75
2023/07/11 07:49:57;;;;;;;6.60;4.20;;;;;;;26.71;47.17;96755.95;108699;1273;22599;-74
2023/07/11 07:52:29;;;;;;;4.80;3.70;;;;;;;26.47;46.63;96756.90;108716;1273;24266;-75
2023/07/11 07:55:00;;;;;;;5.10;3.90;;;;;;;26.33;46.31;96755.23;108718;1273;23180;-74
2023/07/11 07:57:31;;;;;;;7.90;4.60;;;;;;;26.26;46.16;96746.46;108663;1269;22529;-75
2023/07/11 08:00:04;;;;;;;3.80;3.40;;;;;;;26.32;46.55;96754.81;108706;1273;22545;-76
2023/07/11 08:02:39;;;;;;;5.20;4.20;;;;;;;26.54;46.83;96756.48;108708;1264;22517;-75
2023/07/11 08:05:12;;;;;;;4.30;3.90;;;;;;;26.69;46.68;96759.91;108667;1273;22562;-75
2023/07/11 08:07:43;;;;;;;4.70;3.90;;;;;;;26.78;46.80;96758.80;108711;1265;22920;-75
2023/07/11 08:10:15;;;;;;;5.40;4.30;;;;;;;26.93;46.62;96759.11;108692;1273;25396;-75
2023/07/11 08:12:48;;;;;;;5.40;4.20;;;;;;;27.16;46.79;96756.84;108702;1267;22518;-75
2023/07/11 08:15:20;;;;;;;6.20;3.90;;;;;;;27.36;46.10;96754.04;108655;1266;22513;-75
2023/07/11 08:17:51;;;;;;;4.40;3.40;;;;;;;27.29;45.83;96758.51;108672;1269;25223;-75
2023/07/11 08:20:22;;;;;;;5.50;3.90;;;;;;;27.29;45.20;96756.25;108697;1272;23416;-75
2023/07/11 08:22:54;;;;;;;4.00;3.10;;;;;;;27.34;44.48;96763.06;108684;1269;25532;-75
2023/07/11 08:25:25;;;;;;;4.90;3.30;;;;;;;27.26;43.61;96762.16;108696;1269;24055;-74
2023/07/11 08:27:57;;;;;;;4.10;3.10;;;;;;;27.23;43.50;96760.60;108700;1270;22514;-75
2023/07/11 08:30:28;;;;;;;6.60;3.20;;;;;;;27.20;43.47;96759.28;108720;1273;22552;-75
2023/07/11 08:33:00;;;;;;;3.50;3.10;;;;;;;27.17;42.98;96759.89;108701;1250;22547;-74
2023/07/11 08:35:31;;;;;;;5.00;3.00;;;;;;;27.15;42.76;96759.32;108631;1267;22518;-74
2023/07/11 08:38:06;;;;;;;4.30;3.10;;;;;;;27.12;42.75;96755.64;108627;1266;24733;-75
2023/07/11 08:40:43;;;;;;;3.70;2.80;;;;;;;27.19;42.63;96762.77;108708;1273;22529;-76
2023/07/11 08:43:19;;;;;;;4.10;3.20;;;;;;;27.42;42.36;96762.92;108708;1270;22521;-75
2023/07/11 08:45:56;;;;;;;3.10;2.80;;;;;;;27.52;42.35;96764.66;108723;1272;22519;-76
2023/07/11 08:48:42;;;;;;;4.40;3.40;;;;;;;27.30;41.98;96769.42;108868;1267;24192;-75
2023/07/11 08:51:23;;;;;;;4.50;2.90;;;;;;;27.04;41.95;96769.29;108887;1269;23810;-75
2023/07/11 08:54:02;;;;;;;3.90;3.30;;;;;;;26.88;42.34;96765.31;108834;1272;22638;-75
2023/07/11 08:56:38;;;;;;;4.90;3.00;;;;;;;26.70;42.34;96766.05;108782;1273;24408;-73
2023/07/11 08:59:14;;;;;;;3.90;3.10;;;;;;;26.39;42.46;96767.86;108845;1273;22514;-75
2023/07/11 09:01:53;;;;;;;3.50;3.00;;;;;;;26.05;42.33;96769.66;108826;1273;22554;-74
2023/07/11 09:04:26;;;;;;;3.20;2.80;;;;;;;25.55;41.91;96764.95;108740;1270;26301;-75
2023/07/11 09:07:04;;;;;;;3.70;3.20;;;;;;;25.24;42.78;96767.47;108782;1273;22514;-73
2023/07/11 09:09:37;;;;;;;4.90;3.50;;;;;;;25.12;43.13;96766.01;108799;1272;25310;-75
2023/07/11 09:12:25;;;;;;;4.20;3.20;;;;;;;25.02;43.58;96768.26;108747;1267;22536;-75
2023/07/11 09:15:08;;;;;;;5.50;3.50;;;;;;;24.88;43.93;96766.91;108749;1268;22632;-74
2023/07/11 09:17:51;;;;;;;4.90;3.60;;;;;;;24.80;44.24;96769.14;108718;1270;22636;-73
2023/07/11 09:20:31;;;;;;;7.80;3.50;;;;;;;24.86;44.60;96767.66;108798;1270;22532;-74
2023/07/11 09:23:16;;;;;;;4.30;3.40;;;;;;;24.85;44.65;96768.03;108737;1266;23982;-73
2023/07/11 09:25:48;;;;;;;5.40;3.20;;;;;;;24.76;44.70;96764.81;108710;1266;25252;-74
2023/07/11 09:28:24;;;;;;;6.50;3.70;;;;;;;24.66;44.81;96775.59;108727;1273;22591;-73
2023/07/11 09:30:58;;;;;;;6.80;3.40;;;;;;;24.74;45.15;96778.80;108701;1259;22549;-74
2023/07/11 09:33:32;;;;;;;4.30;3.70;;;;;;;24.73;44.97;96773.52;108710;1266;25328;-74
2023/07/11 09:36:13;;;;;;;7.60;3.80;;;;;;;24.64;45.33;96777.80;108573;1267;22526;-74
2023/07/11 09:38:58;;;;;;;5.00;3.80;;;;;;;24.60;45.36;96772.17;108612;1266;22536;-74
2023/07/11 09:41:42;;;;;;;7.20;3.70;;;;;;;24.50;45.34;96784.66;108571;1266;25236;-75
2023/07/11 09:44:14;;;;;;;4.40;3.40;;;;;;;24.61;45.21;96781.48;108608;1267;24309;-74
2023/07/11 09:46:47;;;;;;;6.00;3.50;;;;;;;24.62;45.17;96774.13;108702;1266;22521;-74
2023/07/11 09:49:23;;;;;;;5.90;4.00;;;;;;;24.62;45.34;96773.35;108630;1267;22527;-74
2023/07/11 09:51:57;;;;;;;4.50;3.70;;;;;;;24.55;45.70;96779.46;108652;1267;25445;-74
2023/07/11 09:54:43;;;;;;;4.30;3.60;;;;;;;24.53;45.84;96765.34;108709;1267;22529;-74
2023/07/11 09:57:17;;;;;;;5.50;4.00;;;;;;;24.47;45.85;96784.13;108762;1269;22508;-74
2023/07/11 09:59:59;;;;;;;6.00;3.60;;;;;;;24.61;46.11;96780.17;108523;1266;22628;-73
2023/07/11 10:02:31;;;;;;;6.20;4.00;;;;;;;24.65;45.89;96777.05;108549;1269;22509;-73
2023/07/11 10:05:02;;;;;;;6.20;4.20;;;;;;;24.57;46.23;96771.89;108388;1273;22525;-72
2023/07/11 10:07:35;;;;;;;4.50;4.00;;;;;;;24.62;46.32;96776.84;108598;1266;22548;-74
2023/07/11 10:10:14;;;;;;;6.30;4.10;;;;;;;24.65;46.13;96776.05;108558;1272;22518;-74
2023/07/11 10:12:46;;;;;;;8.40;4.30;;;;;;;24.69;46.00;96780.20;109663;1267;24233;-72
2023/07/11 10:15:19;;;;;;;4.90;4.00;;;;;;;24.76;45.86;96785.73;108761;1272;22533;-73
2023/07/11 10:17:55;;;;;;;6.40;4.00;;;;;;;24.57;45.43;96796.06;108743;1267;24138;-74
2023/07/11 10:20:30;;;;;;;5.40;4.00;;;;;;;24.48;45.85;96794.90;108795;1273;22990;-73
2023/07/11 10:23:11;;;;;;;5.50;4.10;;;;;;;24.42;45.92;96793.66;108548;1266;24185;-74
2023/07/11 10:25:45;;;;;;;4.70;3.80;;;;;;;24.32;46.25;96788.15;108722;1273;22711;-72
2023/07/11 10:28:27;;;;;;;6.30;4.10;;;;;;;24.38;46.29;96794.85;108568;1273;22554;-74
2023/07/11 10:31:06;;;;;;;7.50;4.00;;;;;;;24.45;46.33;96796.58;108652;1269;22965;-75
2023/07/11 10:33:47;;;;;;;5.10;3.90;;;;;;;24.63;46.52;96794.21;108701;1266;22667;-73
2023/07/11 10:36:22;;;;;;;5.50;4.10;;;;;;;24.55;45.82;96792.25;108659;1254;24360;-74
2023/07/11 10:38:57;;;;;;;6.70;3.90;;;;;;;24.60;46.48;96799.44;108630;1266;25477;-75
2023/07/11 10:41:33;;;;;;;5.80;3.90;;;;;;;24.85;46.48;96792.13;108550;1273;22512;-75
2023/07/11 10:44:12;;;;;;;5.90;4.10;;;;;;;25.11;46.44;96792.52;108649;1266;22538;-74
2023/07/11 10:46:48;;;;;;;4.60;3.70;;;;;;;25.06;45.69;96790.65;108615;1273;24261;-74
2023/07/11 10:49:22;;;;;;;4.50;3.70;;;;;;;24.84;45.41;96792.50;108667;1266;22585;-74
2023/07/11 10:51:57;;;;;;;4.10;3.70;;;;;;;24.74;45.22;96786.30;108595;1267;23431;-74
2023/07/11 10:54:40;;;;;;;5.20;3.90;;;;;;;24.67;45.32;96791.64;108649;1273;22528;-75
2023/07/11 10:57:26;;;;;;;4.90;3.80;;;;;;;24.78;45.79;96784.83;108495;1266;22623;-76
2023/07/11 10:59:57;;;;;;;5.50;4.00;;;;;;;24.95;45.85;96786.85;108668;1270;22535;-75
2023/07/11 11:02:43;;;;;;;5.40;3.80;;;;;;;25.07;45.58;96780.74;108555;1266;24272;-74
2023/07/11 11:05:27;;;;;;;3.70;3.40;;;;;;;25.07;44.78;96784.48;108644;1269;22523;-73
2023/07/11 11:08:03;;;;;;;4.90;3.80;;;;;;;24.94;44.48;96787.36;108624;1273;25259;-75
2023/07/11 11:10:43;;;;;;;6.20;4.30;;;;;;;24.79;44.50;96790.41;108669;1266;22638;-75
2023/07/11 11:13:27;;;;;;;5.30;4.00;;;;;;;24.68;44.65;96789.27;108613;1266;22522;-75
2023/07/11 11:16:09;;;;;;;7.40;4.40;;;;;;;24.72;44.96;96789.00;108611;1273;24363;-76
2023/07/11 11:18:58;;;;;;;4.40;4.00;;;;;;;24.88;45.12;96785.36;108747;1266;23848;-74
2023/07/11 11:21:41;;;;;;;6.40;4.20;;;;;;;24.98;44.79;96788.59;108718;1273;22568;-75
2023/07/11 11:24:39;;;;;;;7.10;4.20;;;;;;;24.91;44.74;96787.10;108671;1265;22940;-76
2023/07/11 11:27:28;;;;;;;6.70;4.50;;;;;;;24.96;44.66;96783.90;108582;1266;23843;-75
2023/07/11 11:30:08;;;;;;;5.50;3.80;;;;;;;25.05;44.96;96781.48;108631;1273;22513;-75
2023/07/11 11:32:52;;;;;;;3.90;3.50;;;;;;;25.20;44.91;96778.45;108609;1273;22652;-75
2023/07/11 11:35:32;;;;;;;5.50;3.80;;;;;;;25.15;44.37;96781.55;108974;1266;22515;-75
2023/07/11 11:38:27;;;;;;;5.90;4.10;;;;;;;25.10;44.29;96780.87;108572;1266;22527;-74
2023/07/11 11:41:02;;;;;;;4.80;3.60;;;;;;;25.09;44.32;96781.64;108592;1273;22517;-75
2023/07/11 11:43:35;;;;;;;6.40;4.20;;;;;;;25.22;44.81;96788.30;108678;1273;26484;-75
2023/07/11 11:46:09;;;;;;;5.20;4.10;;;;;;;25.32;44.23;96781.67;108609;1267;25360;-73
2023/07/11 11:48:42;;;;;;;4.70;3.90;;;;;;;25.30;43.69;96781.58;108678;1266;25370;-75
2023/07/11 11:51:17;;;;;;;4.50;3.90;;;;;;;25.19;43.66;96779.03;108653;1273;22516;-75